Historique des mesures à Cassis (13260), France
Quotidien Résumé Juin 20, 2017 Unités:  US    Métrique   Métrique/US
« Précédent (Jour)
Suivant (Jour) »
Quotidien Hebdomadaire Mensuel Annuel Période au choix
  Maximum: Minimum: Moyenne:
Température: 32 °F 70.2 °F 77.5 °F
Point de rosée: 32 °F 54.1 °F 62.2 °F
Humidité: Humidity % 52 % 56 %
Vitesse du vent: WindSpeedKMH mph 0.0 mph 2.4 mph
Rafales: WindSpeedGustKMH mph - -
Vent:- - SE
Pression: 0 in 29.9 in -
Précipitations: 0 in    
Historical Graphs
 
 
Mesures pour : Juin 20, 2017
Heure Temperature Point de rosée Pression Vent Vitesse du vent Rafales Humidité Pluie (par heure) Conditions
32 °F 32 °F 0 in Calm     Humidity % 0 in SoftwareType W/m2
00:11 73.9 °F 58.6 °F 30 in NNE 1.4 mph 1.4 mph 59 % 0 in open2300-1.11 W/m2
01:10 73 °F 56.3 °F 30 in Calm   1.8 mph 56 % 0 in open2300-1.11 W/m2
02:10 72 °F 57.4 °F 30 in NNE 1.4 mph 1.8 mph 60 % 0 in open2300-1.11 W/m2
03:10 71.4 °F 57.7 °F 30 in NE 1.8 mph 3.5 mph 62 % 0 in open2300-1.11 W/m2
04:10 70.9 °F 55.9 °F 30 in NW 3.5 mph 3.5 mph 59 % 0 in open2300-1.11 W/m2
05:10 71.4 °F 54.9 °F 30 in Calm   2.9 mph 56 % 0 in open2300-1.11 W/m2
06:10 70.2 °F 54.1 °F 30 in NNE 1.4 mph 1.4 mph 57 % 0 in open2300-1.11 W/m2
07:10 70.3 °F 55.4 °F 30 in Calm     59 % 0 in open2300-1.11 W/m2
08:11 76.8 °F 61 °F 30 in Calm   1.4 mph 58 % 0 in open2300-1.11 W/m2
09:10 76.3 °F 62.2 °F 30 in Calm   5.8 mph 62 % 0 in open2300-1.11 W/m2
10:10 81.1 °F 66 °F 30 in SSE 4.7 mph 4.7 mph 60 % 0 in open2300-1.11 W/m2
11:10 86.7 °F 66.9 °F 30 in SE 7.6 mph 9.3 mph 52 % 0 in open2300-1.11 W/m2
12:10 88.3 °F 69.6 °F 30 in SSW 2.1 mph 4.0 mph 54 % 0 in open2300-1.11 W/m2
13:10 88.9 °F 70.5 °F 30 in SSE 4.0 mph 9.0 mph 55 % 0 in open2300-1.11 W/m2
14:10 88.2 °F 70 °F 30 in South 4.0 mph 6.8 mph 55 % 0 in open2300-1.11 W/m2
15:10 88.2 °F 68.9 °F 30 in ESE 5.8 mph 5.8 mph 53 % 0 in open2300-1.11 W/m2
16:10 88 °F 69.8 °F 30 in SSE 7.6 mph 8.2 mph 55 % 0 in open2300-1.11 W/m2
17:10 85.8 °F 68.4 °F 29.9 in SSE 4.7 mph 4.7 mph 56 % 0 in open2300-1.11 W/m2
18:10 85.3 °F 66.2 °F 29.9 in SSE 2.1 mph 2.1 mph 53 % 0 in open2300-1.11 W/m2
19:10 83.5 °F 66.6 °F 29.9 in SSE 5.0 mph 5.0 mph 57 % 0 in open2300-1.11 W/m2
20:10 81.7 °F 67.3 °F 29.9 in WSW 2.6 mph 2.6 mph 62 % 0 in open2300-1.11 W/m2
21:10 79.5 °F 67.1 °F 29.9 in Calm   1.4 mph 66 % 0 in open2300-1.11 W/m2
22:10 77.5 °F 67.1 °F 29.9 in Calm     70 % 0 in open2300-1.11 W/m2
23:10 75.7 °F 66 °F 29.9 in Calm     72 % 0 in open2300-1.11 W/m2
Observations météo à CASSIS
WU-History script by Weather Underground - 1 mb